createdAt,value
2023-05-14T00:01:51.605Z,7.62
2023-05-14T00:05:01.252Z,5.83
2023-05-14T00:08:11.562Z,6.75
2023-05-14T00:11:24.477Z,6.03
2023-05-14T00:17:47.255Z,5.27
2023-05-14T00:20:59.043Z,5.53
2023-05-14T00:24:14.823Z,6.37
2023-05-14T00:27:26.674Z,5.83
2023-05-14T00:30:38.772Z,7.00
2023-05-14T00:33:50.312Z,4.30
2023-05-14T00:37:00.311Z,5.53
2023-05-14T00:40:13.534Z,6.08
2023-05-14T00:43:25.752Z,7.62
2023-05-14T00:46:35.920Z,6.95
2023-05-14T00:49:46.799Z,5.55
2023-05-14T00:52:56.715Z,6.10
2023-05-14T00:56:09.989Z,6.90
2023-05-14T00:59:18.699Z,6.83
2023-05-14T01:02:33.327Z,6.28
2023-05-14T01:05:49.479Z,6.97
2023-05-14T01:09:05.702Z,5.58
2023-05-14T01:12:23.676Z,5.90
2023-05-14T01:15:36.832Z,6.60
2023-05-14T01:18:45.428Z,7.55
2023-05-14T01:21:56.710Z,5.15
2023-05-14T01:25:10.133Z,8.20
2023-05-14T01:28:40.858Z,7.90
2023-05-14T01:31:54.874Z,6.42
2023-05-14T01:35:06.577Z,5.87
2023-05-14T01:38:19.386Z,6.03
2023-05-14T01:41:30.501Z,5.12
2023-05-14T01:45:00.667Z,7.28
2023-05-14T01:48:12.440Z,7.22
2023-05-14T01:51:25.034Z,5.47
2023-05-14T01:54:38.594Z,5.65
2023-05-14T01:57:50.259Z,5.72
2023-05-14T02:01:02.217Z,6.17
2023-05-14T02:04:15.612Z,6.25
2023-05-14T02:07:27.520Z,4.37
2023-05-14T02:10:40.240Z,7.08
2023-05-14T02:13:55.917Z,6.45
2023-05-14T02:17:07.127Z,5.37
2023-05-14T02:20:18.068Z,5.40
2023-05-14T02:23:37.922Z,6.22
2023-05-14T02:26:37.847Z,5.12
2023-05-14T02:29:48.596Z,7.42
2023-05-14T02:33:01.647Z,7.70
2023-05-14T02:39:23.650Z,4.42
2023-05-14T02:42:32.118Z,7.70
2023-05-14T02:45:44.186Z,5.70
2023-05-14T02:48:54.145Z,8.20
2023-05-14T02:52:05.379Z,5.85
2023-05-14T02:55:15.762Z,8.90
2023-05-14T02:58:28.417Z,5.78
2023-05-14T03:01:37.898Z,5.83
2023-05-14T03:04:50.275Z,4.97
2023-05-14T03:08:01.847Z,9.75
2023-05-14T03:11:12.062Z,6.30
2023-05-14T03:14:23.899Z,5.05
2023-05-14T03:17:34.711Z,8.15
2023-05-14T03:20:44.381Z,6.62
2023-05-14T03:23:56.030Z,6.60
2023-05-14T03:27:07.026Z,6.95
2023-05-14T03:30:22.115Z,5.37
2023-05-14T03:33:32.822Z,5.90
2023-05-14T03:36:41.225Z,6.75
2023-05-14T03:39:52.808Z,5.95
2023-05-14T03:43:04.545Z,6.35
2023-05-14T03:46:15.784Z,5.12
2023-05-14T03:49:28.479Z,6.25
2023-05-14T03:52:41.076Z,7.83
2023-05-14T03:55:53.660Z,4.92
2023-05-14T03:59:07.391Z,5.70
2023-05-14T04:02:17.345Z,5.85
2023-05-14T04:05:30.819Z,5.65
2023-05-14T04:08:41.964Z,4.67
2023-05-14T04:11:54.104Z,9.48
2023-05-14T04:15:06.798Z,4.33
2023-05-14T04:18:20.735Z,5.40
2023-05-14T04:21:32.059Z,4.80
2023-05-14T04:24:42.727Z,6.62
2023-05-14T04:27:52.902Z,7.47
2023-05-14T04:31:01.085Z,5.90
2023-05-14T04:34:09.565Z,5.53
2023-05-14T04:37:21.191Z,5.08
2023-05-14T04:40:34.982Z,5.35
2023-05-14T04:43:45.053Z,13.28
2023-05-14T04:46:54.919Z,5.45
2023-05-14T04:50:06.939Z,4.20
2023-05-14T04:53:18.155Z,4.60
2023-05-14T04:56:26.508Z,5.17
2023-05-14T04:59:38.093Z,5.33
2023-05-14T05:02:50.271Z,8.20
2023-05-14T05:06:00.905Z,5.57
2023-05-14T05:09:13.695Z,5.62
2023-05-14T05:12:24.931Z,5.00
2023-05-14T05:15:39.282Z,5.28
2023-05-14T05:18:52.273Z,6.20
2023-05-14T05:25:13.442Z,7.00
2023-05-14T05:28:24.396Z,4.70
2023-05-14T05:31:33.570Z,4.45
2023-05-14T05:34:44.388Z,6.12
2023-05-14T05:37:55.196Z,4.47
2023-05-14T05:41:06.619Z,5.62
2023-05-14T05:44:19.973Z,5.60
2023-05-14T05:47:32.770Z,4.22
2023-05-14T05:50:46.614Z,5.28
2023-05-14T05:53:57.249Z,5.75
2023-05-14T05:57:09.011Z,4.75
2023-05-14T06:00:24.204Z,5.62
2023-05-14T06:03:36.709Z,4.83
2023-05-14T06:06:49.100Z,5.25
2023-05-14T06:09:59.034Z,4.33
2023-05-14T06:13:10.573Z,4.40
2023-05-14T06:16:22.878Z,5.08
2023-05-14T06:19:36.722Z,4.22
2023-05-14T06:22:46.541Z,5.40
2023-05-14T06:25:58.343Z,4.90
2023-05-14T06:29:09.450Z,5.67
2023-05-14T06:32:22.445Z,4.58
2023-05-14T06:35:37.653Z,4.65
2023-05-14T06:38:52.072Z,5.15
2023-05-14T06:42:05.187Z,4.05
2023-05-14T06:48:24.847Z,4.03
2023-05-14T06:51:38.544Z,4.35
2023-05-14T06:54:51.170Z,4.05
2023-05-14T06:58:00.717Z,4.12
2023-05-14T07:01:15.398Z,3.85
2023-05-14T07:04:26.275Z,4.35
2023-05-14T07:07:38.294Z,4.28
2023-05-14T07:10:52.386Z,4.15
2023-05-14T07:14:04.339Z,4.03
2023-05-14T07:17:15.138Z,4.62
2023-05-14T07:20:26.548Z,6.85
2023-05-14T07:23:37.977Z,4.92
2023-05-14T07:26:48.088Z,5.53
2023-05-14T07:29:59.804Z,3.70
2023-05-14T07:33:08.910Z,4.33
2023-05-14T07:36:18.892Z,6.03
2023-05-14T07:39:29.863Z,3.83
2023-05-14T07:42:40.096Z,4.95
2023-05-14T07:45:53.564Z,4.35
2023-05-14T07:49:06.650Z,3.30
2023-05-14T07:55:28.376Z,3.33
2023-05-14T07:58:40.563Z,3.60
2023-05-14T08:01:52.640Z,4.53
2023-05-14T08:05:05.771Z,3.62
2023-05-14T08:11:25.689Z,4.33
2023-05-14T08:14:35.704Z,3.60
2023-05-14T08:17:47.477Z,3.83
2023-05-14T08:20:58.370Z,5.20
2023-05-14T08:24:13.161Z,3.22
2023-05-14T08:27:25.188Z,4.05
2023-05-14T08:30:35.042Z,4.78
2023-05-14T08:33:50.176Z,3.87
2023-05-14T08:37:02.420Z,3.67
2023-05-14T08:40:15.812Z,3.90
2023-05-14T08:43:28.584Z,3.02
2023-05-14T08:46:40.977Z,2.95
2023-05-14T08:49:53.452Z,4.03
2023-05-14T08:53:03.923Z,3.92
2023-05-14T08:56:16.359Z,3.85
2023-05-14T08:59:26.893Z,4.25
2023-05-14T09:02:37.519Z,4.00
2023-05-14T09:05:49.249Z,3.72
2023-05-14T09:09:00.115Z,3.90
2023-05-14T09:12:12.811Z,4.05
2023-05-14T09:15:22.655Z,4.25
2023-05-14T09:18:33.046Z,4.55
2023-05-14T09:21:42.207Z,3.87
2023-05-14T09:24:52.219Z,3.17
2023-05-14T09:28:04.099Z,4.35
2023-05-14T09:31:17.530Z,3.92
2023-05-14T09:37:49.705Z,4.77
2023-05-14T09:41:02.341Z,5.33
2023-05-14T09:44:14.332Z,4.28
2023-05-14T09:47:24.411Z,3.20
2023-05-14T09:50:37.785Z,3.35
2023-05-14T09:53:49.751Z,3.17
2023-05-14T09:56:59.153Z,4.22
2023-05-14T10:00:15.433Z,3.77
2023-05-14T10:03:30.472Z,3.42
2023-05-14T10:06:43.940Z,3.52
2023-05-14T10:09:57.577Z,3.37
2023-05-14T10:13:15.288Z,4.58
2023-05-14T10:16:32.456Z,3.72
2023-05-14T10:19:46.073Z,3.47
2023-05-14T10:22:58.957Z,3.52
2023-05-14T10:26:10.164Z,4.03
2023-05-14T10:29:22.375Z,3.15
2023-05-14T10:32:34.798Z,3.63
2023-05-14T10:39:28.197Z,3.80
2023-05-14T10:42:40.980Z,11.75
2023-05-14T10:45:51.153Z,5.17
2023-05-14T10:49:02.831Z,4.00
2023-05-14T10:52:16.700Z,3.67
2023-05-14T10:55:26.910Z,3.72
2023-05-14T10:58:40.317Z,4.22
2023-05-14T11:01:51.353Z,6.15
2023-05-14T11:05:03.192Z,5.30
2023-05-14T11:08:16.464Z,2.52
2023-05-14T11:14:33.350Z,3.55
2023-05-14T11:17:47.364Z,2.52
2023-05-14T11:20:59.572Z,2.98
2023-05-14T11:24:12.234Z,2.92
2023-05-14T11:27:21.928Z,2.87
2023-05-14T11:30:31.203Z,3.58
2023-05-14T11:33:43.101Z,2.65
2023-05-14T11:36:54.371Z,2.75
2023-05-14T11:40:08.546Z,3.25
2023-05-14T11:43:18.628Z,2.90
2023-05-14T11:46:29.244Z,2.70
2023-05-14T11:49:40.460Z,2.65
2023-05-14T11:52:51.593Z,3.58
2023-05-14T11:56:00.215Z,2.92
2023-05-14T11:59:10.635Z,4.10
2023-05-14T12:02:24.509Z,3.10
2023-05-14T12:05:38.053Z,2.37
2023-05-14T12:08:50.671Z,4.08
2023-05-14T12:11:59.781Z,2.90
2023-05-14T12:15:18.858Z,2.77
2023-05-14T12:18:29.297Z,2.27
2023-05-14T12:21:38.973Z,3.50
2023-05-14T12:24:58.383Z,2.40
2023-05-14T12:28:09.699Z,1.92
2023-05-14T12:31:22.979Z,3.00
2023-05-14T12:37:45.605Z,1.87
2023-05-14T12:40:57.729Z,1.70
2023-05-14T12:44:10.822Z,2.92
2023-05-14T12:47:24.688Z,2.98
2023-05-14T12:50:36.122Z,2.72
2023-05-14T12:53:49.132Z,3.70
2023-05-14T12:56:59.357Z,2.95
2023-05-14T13:00:15.389Z,2.27
2023-05-14T13:03:29.822Z,1.82
2023-05-14T13:06:38.392Z,2.10
2023-05-14T13:09:51.969Z,4.72
2023-05-14T13:13:01.821Z,1.82
2023-05-14T13:16:17.254Z,2.92
2023-05-14T13:19:30.092Z,1.92
2023-05-14T13:22:39.998Z,3.60
2023-05-14T13:25:49.946Z,2.35
2023-05-14T13:29:03.154Z,4.90
2023-05-14T13:32:14.064Z,3.52
2023-05-14T13:35:24.151Z,1.52
2023-05-14T13:38:36.650Z,2.55
2023-05-14T13:41:47.261Z,2.55
2023-05-14T13:44:58.353Z,5.75
2023-05-14T13:48:09.574Z,3.90
2023-05-14T13:51:20.535Z,9.40
2023-05-14T13:54:31.952Z,2.22
2023-05-14T13:57:43.636Z,1.87
2023-05-14T14:00:58.101Z,2.65
2023-05-14T14:04:07.180Z,3.27
2023-05-14T14:07:16.922Z,2.37
2023-05-14T14:10:28.201Z,2.15
2023-05-14T14:13:38.618Z,2.60
2023-05-14T14:16:51.593Z,2.17
2023-05-14T14:20:00.431Z,1.82
2023-05-14T14:23:10.475Z,4.03
2023-05-14T14:26:23.676Z,2.70
2023-05-14T14:29:33.631Z,2.50
2023-05-14T14:32:43.772Z,2.08
2023-05-14T14:35:54.066Z,2.27
2023-05-14T14:39:04.268Z,2.42
2023-05-14T14:42:13.318Z,2.30
2023-05-14T14:45:24.152Z,2.15
2023-05-14T14:48:36.554Z,2.10
2023-05-14T14:51:48.350Z,2.75
2023-05-14T14:54:57.532Z,1.52
2023-05-14T14:58:08.886Z,2.22
2023-05-14T15:01:19.828Z,1.70
2023-05-14T15:04:32.318Z,2.20
2023-05-14T15:07:42.881Z,2.45
2023-05-14T15:10:53.834Z,7.35
2023-05-14T15:14:07.651Z,2.27
2023-05-14T15:17:16.979Z,1.98
2023-05-14T15:20:28.656Z,1.60
2023-05-14T15:23:42.042Z,2.10
2023-05-14T15:26:53.305Z,2.00
2023-05-14T15:30:10.075Z,1.45
2023-05-14T15:33:20.897Z,3.50
2023-05-14T15:36:32.005Z,1.77
2023-05-14T15:39:42.514Z,1.95
2023-05-14T15:42:56.255Z,1.87
2023-05-14T15:46:09.743Z,2.25
2023-05-14T15:49:18.066Z,1.52
2023-05-14T15:52:28.423Z,1.95
2023-05-14T15:55:40.865Z,4.55
2023-05-14T15:58:50.985Z,2.25
2023-05-14T16:01:59.763Z,2.47
2023-05-14T16:05:12.258Z,1.87
2023-05-14T16:08:20.568Z,2.20
2023-05-14T16:11:32.677Z,2.65
2023-05-14T16:14:43.770Z,1.63
2023-05-14T16:17:57.589Z,2.02
2023-05-14T16:21:06.963Z,1.52
2023-05-14T16:24:17.110Z,2.12
2023-05-14T16:27:27.690Z,1.12
2023-05-14T16:30:37.869Z,1.62
2023-05-14T16:33:46.954Z,2.08
2023-05-14T16:36:56.171Z,2.00
2023-05-14T16:40:05.756Z,1.77
2023-05-14T16:43:16.717Z,2.20
2023-05-14T16:46:30.763Z,1.45
2023-05-14T16:49:42.063Z,1.47
2023-05-14T16:52:53.733Z,1.72
2023-05-14T16:56:07.808Z,2.20
2023-05-14T16:59:16.512Z,1.80
2023-05-14T17:02:29.595Z,1.75
2023-05-14T17:08:53.097Z,1.67
2023-05-14T17:12:05.290Z,1.72
2023-05-14T17:15:20.434Z,1.93
2023-05-14T17:18:33.243Z,1.70
2023-05-14T17:21:40.825Z,2.58
2023-05-14T17:24:51.447Z,1.65
2023-05-14T17:28:02.290Z,1.60
2023-05-14T17:31:14.689Z,1.77
2023-05-14T17:34:23.110Z,3.35
2023-05-14T17:37:32.639Z,1.82
2023-05-14T17:40:43.824Z,1.72
2023-05-14T17:43:54.926Z,2.98
2023-05-14T17:47:06.651Z,1.30
2023-05-14T17:50:17.211Z,1.57
2023-05-14T17:53:26.399Z,2.50
2023-05-14T17:56:37.052Z,1.42
2023-05-14T17:59:48.250Z,1.45
2023-05-14T18:02:59.388Z,0.95
2023-05-14T18:06:10.088Z,1.62
2023-05-14T18:09:21.011Z,1.32
2023-05-14T18:12:30.218Z,1.85
2023-05-14T18:15:40.830Z,1.20
2023-05-14T18:18:49.949Z,2.20
2023-05-14T18:21:59.508Z,1.20
2023-05-14T18:25:15.303Z,1.80
2023-05-14T18:28:28.237Z,1.50
2023-05-14T18:31:36.626Z,1.37
2023-05-14T18:34:49.278Z,1.52
2023-05-14T18:38:01.507Z,1.45
2023-05-14T18:41:14.968Z,1.17
2023-05-14T18:44:25.609Z,0.98
2023-05-14T18:47:37.753Z,1.90
2023-05-14T18:50:47.965Z,1.67
2023-05-14T18:53:59.389Z,1.67
2023-05-14T18:57:09.016Z,1.47
2023-05-14T19:00:21.659Z,1.40
2023-05-14T19:03:31.201Z,1.35
2023-05-14T19:06:40.958Z,2.50
2023-05-14T19:09:52.492Z,1.77
2023-05-14T19:13:01.800Z,1.25
2023-05-14T19:16:15.525Z,2.22
2023-05-14T19:19:25.421Z,1.65
2023-05-14T19:22:38.008Z,1.62
2023-05-14T19:25:50.293Z,1.22
2023-05-14T19:28:59.628Z,1.53
2023-05-14T19:32:11.243Z,2.08
2023-05-14T19:35:23.037Z,1.52
2023-05-14T19:38:35.935Z,1.37
2023-05-14T19:41:47.136Z,1.35
2023-05-14T19:44:59.654Z,1.12
2023-05-14T19:48:09.368Z,0.90
2023-05-14T19:51:19.076Z,2.37
2023-05-14T19:54:31.548Z,1.10
2023-05-14T19:57:43.794Z,2.72
2023-05-14T20:00:56.213Z,1.50
2023-05-14T20:04:06.560Z,1.52
2023-05-14T20:10:32.837Z,1.47
2023-05-14T20:13:43.715Z,1.02
2023-05-14T20:16:55.576Z,1.40
2023-05-14T20:20:08.541Z,1.25
2023-05-14T20:23:20.174Z,1.42
2023-05-14T20:26:32.177Z,1.50
2023-05-14T20:29:45.732Z,1.57
2023-05-14T20:32:56.871Z,1.10
2023-05-14T20:36:08.394Z,1.55
2023-05-14T20:39:20.580Z,1.62
2023-05-14T20:42:31.682Z,1.30
2023-05-14T20:45:42.286Z,1.32
2023-05-14T20:48:54.454Z,1.40
2023-05-14T20:52:05.569Z,1.57
2023-05-14T20:55:17.419Z,1.27
2023-05-14T20:58:28.354Z,1.50
2023-05-14T21:01:40.939Z,1.65
2023-05-14T21:04:53.540Z,1.17
2023-05-14T21:08:04.775Z,0.82
2023-05-14T21:11:16.577Z,1.40
2023-05-14T21:14:26.632Z,1.30
2023-05-14T21:17:35.485Z,1.47
2023-05-14T21:20:47.070Z,1.20
2023-05-14T21:23:59.947Z,0.90
2023-05-14T21:27:11.970Z,1.57
2023-05-14T21:30:22.321Z,0.93
2023-05-14T21:33:31.461Z,1.75
2023-05-14T21:36:42.697Z,1.50
2023-05-14T21:39:52.443Z,1.52
2023-05-14T21:43:05.016Z,1.90
2023-05-14T21:46:15.260Z,1.57
2023-05-14T21:49:26.159Z,0.95
2023-05-14T21:52:37.731Z,2.33
2023-05-14T21:55:48.934Z,1.10
2023-05-14T21:58:57.857Z,1.65
2023-05-14T22:02:11.341Z,1.42
2023-05-14T22:05:21.681Z,0.70
2023-05-14T22:08:31.570Z,1.17
2023-05-14T22:11:42.149Z,1.22
2023-05-14T22:14:55.039Z,1.65
2023-05-14T22:18:04.889Z,1.32
2023-05-14T22:21:15.451Z,0.80
2023-05-14T22:24:27.044Z,1.17
2023-05-14T22:27:37.120Z,1.60
2023-05-14T22:30:47.866Z,1.05
2023-05-14T22:33:58.261Z,2.67
2023-05-14T22:37:08.780Z,1.00
2023-05-14T22:40:24.182Z,0.72
2023-05-14T22:43:35.304Z,1.60
2023-05-14T22:46:49.069Z,1.10
2023-05-14T22:49:59.394Z,1.62
2023-05-14T22:53:08.689Z,1.55
2023-05-14T22:56:23.970Z,1.50
2023-05-14T22:59:36.629Z,1.10
2023-05-14T23:02:48.371Z,1.80
2023-05-14T23:05:59.970Z,1.50
2023-05-14T23:09:14.738Z,1.50
2023-05-14T23:12:25.165Z,1.37
2023-05-14T23:15:36.640Z,1.40
2023-05-14T23:18:49.630Z,2.50
2023-05-14T23:25:07.628Z,6.08
2023-05-14T23:28:18.319Z,1.82
2023-05-14T23:31:28.237Z,1.10
2023-05-14T23:34:42.556Z,1.45
2023-05-14T23:37:53.645Z,1.57
2023-05-14T23:41:07.093Z,1.00
2023-05-14T23:44:18.893Z,1.45
2023-05-14T23:47:27.319Z,1.27
2023-05-14T23:50:41.948Z,3.20
2023-05-14T23:53:51.332Z,0.90
2023-05-14T23:57:03.879Z,1.52
